This is the latest recevied weather packets stored in our database for station/object EA1IDU. If no packets are shown the sender has not sent any weather packets the latest 10 day(s).
| Time | Temp. | Humidity | Pressure | Rain* | Wind** | Luminosity | Snow |
|---|---|---|---|---|---|---|---|
| 1777612824 | 9.44° C | 94% | 1020.3 hPa | 0 mm | - | - | - |
| 1777609275 | 10° C | 93% | 1019.8 hPa | 0 mm | - | - | - |
| 1777605622 | 10.56° C | 92% | 1019.9 hPa | 0 mm | - | - | - |
| 1777595457 | 11.11° C | 91% | 1020.4 hPa | 0 mm | - | - | - |
| 1777594247 | 11.11° C | 91% | 1020.4 hPa | 0 mm | - | - | - |
| 1777591827 | 11.67° C | 89% | 1020.3 hPa | 0 mm | - | - | - |
| 1777584627 | 12.78° C | 79% | 1020.5 hPa | 0 mm | - | - | - |
| 1777581663 | 13.33° C | 75% | 1020.1 hPa | 0 mm | - | - | - |
| 1777581059 | 13.33° C | 74% | 1019.8 hPa | 0 mm | - | - | - |
| 1777576823 | 15° C | 68% | 1019.2 hPa | 0 mm | - | - | - |
| 1777570228 | 16.11° C | 61% | 1018.8 hPa | 0 mm | - | - | - |
| 1777569020 | 16.67° C | 58% | 1018.6 hPa | 0 mm | - | - | - |
| 1777567869 | 16.11° C | 59% | 1018.7 hPa | 0 mm | - | - | - |
| 1777563633 | 16.11° C | 60% | 1018.5 hPa | 0 mm | - | - | - |
| 1777560668 | 16.67° C | 60% | 1018.4 hPa | 0 mm | - | - | - |
| 1777557643 | 16.67° C | 54% | 1018.5 hPa | 0 mm | - | - | - |
| 1777549234 | 13.89° C | 72% | 1018.7 hPa | 0 mm | - | - | - |
| 1777544453 | 13.89° C | 69% | 1018.5 hPa | 0 mm | - | - | - |
| 1777543848 | 15° C | 69% | 1018.5 hPa | 0 mm | - | - | - |
| 1777542637 | 13.89° C | 70% | 1018.3 hPa | 0 mm | - | - | - |
| 1777540218 | 12.22° C | 78% | 1018.2 hPa | 0 mm | - | - | - |
| 1777536042 | 11.67° C | 82% | 1017.6 hPa | 0 mm | - | - | - |
| 1777525816 | 8.89° C | 95% | 1016.2 hPa | 0 mm | - | - | - |
| 1777523456 | 9.44° C | 95% | 1016.1 hPa | 0 mm | - | - | - |
| 1777516257 | 10.56° C | 90% | 1015.2 hPa | 0 mm | - | - | - |
* Rain latest hour (hover to see other rain measurements)
** Current wind speed in m/s (hover to see current wind gust speed)